TISX/STX METAR and TAF weather

Enter ICAO airport designator
Station Type Date Time Source
TISX METAR 2021/02/27 21:53 UTC NOAA

TISX 272153Z 08017G24KT 10SM SCT035 SCT045 OVC095 27/19 A3004 RMK AO2 SLP170 T02670194


Station Type Date Time Source
TISX Decoded METAR 2021/02/27 21:53 UTC NOAA

Christiansted, Henry E. Rohlsen Airport, Virgin Islands (TISX) 17-42N 064-48W 17M
Feb 27, 2021 - 04:53 PM EST / 2021.02.27 2153 UTC
Wind: from the E (080 degrees) at 20 MPH (17 KT) gusting to 28 MPH (24 KT):0
Visibility: 10 mile(s):0
Sky conditions: overcast
Temperature: 80.1 F (26.7 C)
Dew Point: 66.9 F (19.4 C)
Relative Humidity: 64%
Pressure (altimeter): 30.04 in. Hg (1017 hPa)
ob: TISX 272153Z 08017G24KT 10SM SCT035 SCT045 OVC095 27/19 A3004 RMK AO2 SLP170 T02670194
cycle: 22

Station Type Date Time Source
TISX TAF 2021/02/27 18:43 UTC NOAA

TAF TISX 271734Z 2718/2818 10020G30KT P6SM SCT035 SCT050
FM272300 07015KT P6SM VCSH SCT025 SCT035 SCT060
FM281300 07021G31KT P6SM VCSH SCT025 BKN035

Example: see airport list